Coventry, New York
Current Conditions -  °F | °C
As of 3:42 AM on Friday 28 Nov 2014 (Local Time) from KBGM Reporting Station
Light Snow Light Snow  
Wind Chill: 14°   Ceiling: 3400
Heat Index: 24°   Visibility: 2mi
Dew Point: 21°   Wind: 10mph
Humidity: 88%   Direction: 330°NNW
Pressure: 30.03"   Gusts: NA
Location:  42.3542°N, 75.7469°W
Report Text: KBGM 280842Z AUTO 33009KT 2SM -SN BR OVC034 M04/M06 A3003 RMK AO2 SNE0759B27 P0000 T10441061 $
Loading
Personal Weather Stations






























Interactive Weather Map New forecast layout! Learn more

10-Day Weather Forecast

Advertisements
Track Severe Weather on mobile